Terminal Aerodrome Forecast
Issued by NWS Sterling, VA

Home | Current Version | Previous Version | Text Only | Print | Product List | Glossary On
Versions: 1 2 3 4 5 6 7 8 9 10 11 12 13 14 15 16 17 18 19 20 21 22
000
FTUS41 KLWX 201500 AAA
TAFDCA
TAF AMD
KDCA 201500Z 2015/2112 30007KT P6SM SCT250
     FM201700 27006KT P6SM BKN060 BKN250
     FM202000 23007KT P6SM BKN060 BKN250
     FM202200 21007KT P6SM SCT060
     FM210500 VRB03KT P6SM SCT060=

USA.gov is the U.S. government's official web portal to all federal, state and local government web resources and services.